You are listening to:
KMDW Tower #1 - Chicago, Illinois, United States

KMDW 040153Z 08007KT 10SM FEW250 28/16 A3001 RMK AO2 SLP150 T02780161 $

If stream doesn't start automatically press the play button
If stream stops then reload player then press play